createdAt,value
2018-04-29T00:00:53.066Z,0.00
2018-04-29T00:01:53.063Z,0.00
2018-04-29T00:02:53.059Z,0.00
2018-04-29T00:03:53.055Z,0.00
2018-04-29T00:04:53.045Z,0.00
2018-04-29T00:05:53.044Z,0.00
2018-04-29T00:06:53.037Z,0.00
2018-04-29T00:07:53.033Z,0.00
2018-04-29T00:08:53.029Z,0.00
2018-04-29T00:09:53.023Z,0.00
2018-04-29T00:10:53.020Z,0.00
2018-04-29T00:11:53.019Z,0.00
2018-04-29T00:12:53.010Z,0.00
2018-04-29T00:13:53.006Z,0.00
2018-04-29T00:14:53.008Z,0.00
2018-04-29T00:15:53.003Z,0.00
2018-04-29T00:16:52.992Z,0.00
2018-04-29T00:17:52.991Z,0.00
2018-04-29T00:18:52.987Z,0.00
2018-04-29T00:19:52.979Z,0.00
2018-04-29T00:20:52.979Z,0.00
2018-04-29T00:21:52.981Z,0.00
2018-04-29T00:22:52.966Z,0.00
2018-04-29T00:23:52.962Z,0.00
2018-04-29T00:24:52.958Z,0.00
2018-04-29T00:25:52.953Z,0.00
2018-04-29T00:26:52.949Z,0.00
2018-04-29T00:27:52.944Z,0.00
2018-04-29T00:28:52.939Z,0.00
2018-04-29T00:29:52.934Z,0.00
2018-04-29T00:30:52.929Z,0.00
2018-04-29T00:31:52.925Z,0.00
2018-04-29T00:32:52.963Z,0.00
2018-04-29T00:33:52.919Z,0.00
2018-04-29T00:34:52.916Z,0.00
2018-04-29T00:35:52.910Z,0.00
2018-04-29T00:36:52.901Z,0.00
2018-04-29T00:37:52.896Z,0.00
2018-04-29T00:38:52.892Z,0.00
2018-04-29T00:39:52.889Z,0.00
2018-04-29T00:40:52.882Z,0.00
2018-04-29T00:41:52.922Z,0.00
2018-04-29T00:42:52.872Z,0.00
2018-04-29T00:43:52.868Z,0.00
2018-04-29T00:44:52.863Z,0.00
2018-04-29T00:45:52.857Z,0.00
2018-04-29T00:46:52.857Z,0.00
2018-04-29T00:47:52.853Z,0.00
2018-04-29T00:48:52.845Z,0.00
2018-04-29T00:49:52.838Z,0.00
2018-04-29T00:50:52.886Z,0.00
2018-04-29T00:51:52.829Z,0.00
2018-04-29T00:52:52.827Z,0.00
2018-04-29T00:53:52.824Z,0.00
2018-04-29T00:54:52.815Z,0.00
2018-04-29T00:55:52.809Z,0.00
2018-04-29T00:56:52.804Z,0.00
2018-04-29T00:57:52.800Z,0.00
2018-04-29T00:58:52.794Z,0.00
2018-04-29T00:59:52.789Z,0.00
2018-04-29T01:00:52.785Z,0.00
2018-04-29T01:01:52.779Z,0.00
2018-04-29T01:02:52.774Z,0.00
2018-04-29T01:03:52.769Z,0.00
2018-04-29T01:04:52.768Z,0.00
2018-04-29T01:05:52.790Z,0.00
2018-04-29T01:06:52.758Z,0.00
2018-04-29T01:07:52.756Z,0.00
2018-04-29T01:08:52.742Z,0.00
2018-04-29T01:09:52.737Z,0.00
2018-04-29T01:10:52.732Z,0.00
2018-04-29T01:11:52.728Z,0.00
2018-04-29T01:12:52.724Z,0.00
2018-04-29T01:13:52.717Z,0.00
2018-04-29T01:14:52.712Z,0.00
2018-04-29T01:15:52.707Z,0.00
2018-04-29T01:16:52.701Z,0.00
2018-04-29T01:17:52.696Z,0.00
2018-04-29T01:18:52.695Z,0.00
2018-04-29T01:19:52.690Z,0.00
2018-04-29T01:20:52.680Z,0.00
2018-04-29T01:21:52.674Z,0.00
2018-04-29T01:22:52.671Z,0.00
2018-04-29T01:23:52.667Z,0.00
2018-04-29T01:24:52.664Z,0.00
2018-04-29T01:25:52.658Z,0.00
2018-04-29T01:26:52.649Z,0.00
2018-04-29T01:27:52.643Z,0.00
2018-04-29T01:28:52.642Z,0.00
2018-04-29T01:29:52.633Z,0.00
2018-04-29T01:30:52.627Z,0.00
2018-04-29T01:31:52.626Z,0.00
2018-04-29T01:32:52.615Z,0.00
2018-04-29T01:33:52.611Z,0.00
2018-04-29T01:34:52.605Z,0.00
2018-04-29T01:35:52.601Z,0.00
2018-04-29T01:36:52.597Z,0.00
2018-04-29T01:37:52.593Z,0.00
2018-04-29T01:38:52.584Z,0.00
2018-04-29T01:39:52.578Z,0.00
2018-04-29T01:40:52.572Z,0.00
2018-04-29T01:41:52.567Z,0.00
2018-04-29T01:42:52.561Z,0.00
2018-04-29T01:43:52.555Z,0.00
2018-04-29T01:44:52.555Z,0.00
2018-04-29T01:45:52.549Z,0.00
2018-04-29T01:46:52.539Z,0.00
2018-04-29T01:47:52.533Z,0.00
2018-04-29T01:48:52.532Z,0.00
2018-04-29T01:49:52.527Z,0.00
2018-04-29T01:50:52.516Z,0.00
2018-04-29T01:51:52.512Z,0.00
2018-04-29T01:52:52.505Z,0.00
2018-04-29T01:53:52.501Z,0.00
2018-04-29T01:54:52.495Z,0.00
2018-04-29T01:55:52.489Z,0.00
2018-04-29T01:56:52.488Z,0.00
2018-04-29T01:57:52.480Z,0.00
2018-04-29T01:58:52.476Z,0.00
2018-04-29T01:59:52.472Z,0.00
2018-04-29T02:00:52.459Z,0.00
2018-04-29T02:01:52.454Z,0.00
2018-04-29T02:02:52.458Z,0.00
2018-04-29T02:03:52.449Z,0.00
2018-04-29T02:04:52.437Z,0.00
2018-04-29T02:05:52.435Z,0.00
2018-04-29T02:06:52.435Z,0.00
2018-04-29T02:07:52.422Z,0.00
2018-04-29T02:08:52.414Z,0.00
2018-04-29T02:09:52.409Z,0.00
2018-04-29T02:10:52.403Z,0.00
2018-04-29T02:11:52.397Z,0.00
2018-04-29T02:12:52.391Z,0.00
2018-04-29T02:13:52.387Z,0.00
2018-04-29T02:14:52.380Z,0.00
2018-04-29T02:15:52.374Z,0.00
2018-04-29T02:16:52.372Z,0.00
2018-04-29T02:17:52.366Z,0.00
2018-04-29T02:18:52.356Z,0.00
2018-04-29T02:19:52.351Z,0.00
2018-04-29T02:20:52.349Z,0.00
2018-04-29T02:21:52.343Z,0.00
2018-04-29T02:22:52.334Z,0.00
2018-04-29T02:23:52.328Z,0.00
2018-04-29T02:24:52.321Z,0.00
2018-04-29T02:25:52.316Z,0.00
2018-04-29T02:26:52.310Z,0.00
2018-04-29T02:27:52.304Z,0.00
2018-04-29T02:28:52.298Z,0.00
2018-04-29T02:29:52.292Z,0.00
2018-04-29T02:30:52.290Z,0.00
2018-04-29T02:31:52.286Z,0.00
2018-04-29T02:32:52.274Z,0.00
2018-04-29T02:33:52.270Z,0.00
2018-04-29T02:34:52.269Z,0.00
2018-04-29T02:35:52.262Z,0.00
2018-04-29T02:36:52.251Z,0.00
2018-04-29T02:37:52.246Z,0.00
2018-04-29T02:38:52.240Z,0.00
2018-04-29T02:39:52.235Z,0.00
2018-04-29T02:40:52.227Z,0.00
2018-04-29T02:41:52.221Z,0.00
2018-04-29T02:42:52.224Z,0.00
2018-04-29T02:43:52.215Z,0.00
2018-04-29T02:44:52.203Z,0.00
2018-04-29T02:45:52.224Z,0.00
2018-04-29T02:46:52.192Z,0.00
2018-04-29T02:47:52.187Z,0.00
2018-04-29T02:48:52.181Z,0.00
2018-04-29T02:49:52.174Z,0.00
2018-04-29T02:50:52.173Z,0.00
2018-04-29T02:51:52.168Z,0.00
2018-04-29T02:52:52.155Z,0.00
2018-04-29T02:53:52.151Z,0.00
2018-04-29T02:54:52.148Z,0.00
2018-04-29T02:55:52.143Z,0.00
2018-04-29T02:56:52.131Z,0.00
2018-04-29T02:57:52.126Z,0.00
2018-04-29T02:58:52.121Z,0.00
2018-04-29T02:59:52.114Z,0.00
2018-04-29T03:00:52.112Z,0.00
2018-04-29T03:01:52.106Z,0.00
2018-04-29T03:02:52.096Z,0.00
2018-04-29T03:03:52.093Z,0.00
2018-04-29T03:04:52.084Z,0.00
2018-04-29T03:05:52.081Z,0.00
2018-04-29T03:06:52.071Z,0.00
2018-04-29T03:07:52.067Z,0.00
2018-04-29T03:08:52.059Z,0.00
2018-04-29T03:09:52.054Z,0.00
2018-04-29T03:10:52.046Z,0.00
2018-04-29T03:11:52.041Z,0.00
2018-04-29T03:12:52.039Z,0.00
2018-04-29T03:13:52.033Z,0.00
2018-04-29T03:14:52.030Z,0.00
2018-04-29T03:15:52.020Z,0.00
2018-04-29T03:16:52.015Z,0.00
2018-04-29T03:17:52.003Z,0.00
2018-04-29T03:18:51.997Z,0.00
2018-04-29T03:19:51.991Z,0.00
2018-04-29T03:20:51.984Z,0.00
2018-04-29T03:21:51.979Z,0.00
2018-04-29T03:22:51.973Z,0.00
2018-04-29T03:23:51.966Z,0.00
2018-04-29T03:24:51.959Z,0.00
2018-04-29T03:25:51.953Z,0.00
2018-04-29T03:26:51.951Z,0.00
2018-04-29T03:27:51.946Z,0.00
2018-04-29T03:28:51.934Z,0.00
2018-04-29T03:29:51.927Z,0.00
2018-04-29T03:30:51.923Z,0.00
2018-04-29T03:31:51.917Z,0.00
2018-04-29T03:32:51.913Z,0.00
2018-04-29T03:33:51.906Z,0.00
2018-04-29T03:34:51.897Z,4.00
2018-04-29T03:35:51.890Z,4.00
2018-04-29T03:36:51.885Z,0.00
2018-04-29T03:37:51.878Z,0.00
2018-04-29T03:38:51.872Z,4.00
2018-04-29T03:39:51.865Z,4.00
2018-04-29T03:40:51.858Z,4.00
2018-04-29T03:41:51.852Z,8.00
2018-04-29T03:42:51.902Z,4.00
2018-04-29T03:43:51.840Z,8.00
2018-04-29T03:44:51.836Z,8.00
2018-04-29T03:45:51.832Z,8.00
2018-04-29T03:46:51.820Z,12.00
2018-04-29T03:47:51.814Z,16.00
2018-04-29T03:48:51.807Z,20.00
2018-04-29T03:49:51.801Z,16.00
2018-04-29T03:50:51.794Z,20.00
2018-04-29T03:51:51.788Z,24.00
2018-04-29T03:52:51.786Z,28.00
2018-04-29T03:53:51.779Z,28.00
2018-04-29T03:54:51.770Z,32.00
2018-04-29T03:55:51.766Z,40.00
2018-04-29T03:56:51.761Z,44.00
2018-04-29T03:57:51.756Z,48.00
2018-04-29T03:58:51.743Z,48.00
2018-04-29T03:59:51.737Z,56.00
2018-04-29T04:00:51.731Z,64.00
2018-04-29T04:01:51.745Z,68.00
2018-04-29T04:02:51.740Z,76.00
2018-04-29T04:03:51.712Z,84.00
2018-04-29T04:04:51.705Z,92.00
2018-04-29T04:05:51.699Z,104.00
2018-04-29T04:06:51.697Z,116.00
2018-04-29T04:07:51.699Z,128.00
2018-04-29T04:08:51.680Z,152.00
2018-04-29T04:09:51.727Z,168.00
2018-04-29T04:10:51.672Z,192.00
2018-04-29T04:11:51.667Z,212.00
2018-04-29T04:12:51.656Z,236.00
2018-04-29T04:13:51.649Z,260.00
2018-04-29T04:14:51.645Z,288.00
2018-04-29T04:15:51.641Z,304.00
2018-04-29T04:16:51.631Z,328.00
2018-04-29T04:17:51.626Z,352.00
2018-04-29T04:18:51.623Z,376.00
2018-04-29T04:19:51.613Z,408.00
2018-04-29T04:20:51.606Z,440.00
2018-04-29T04:21:51.601Z,484.00
2018-04-29T04:22:51.595Z,516.00
2018-04-29T04:23:51.589Z,552.00
2018-04-29T04:24:51.586Z,600.00
2018-04-29T04:25:51.582Z,636.00
2018-04-29T04:26:51.570Z,640.00
2018-04-29T04:27:51.564Z,624.00
2018-04-29T04:28:51.562Z,604.00
2018-04-29T04:29:51.556Z,600.00
2018-04-29T04:30:51.546Z,608.00
2018-04-29T04:31:51.541Z,616.00
2018-04-29T04:32:51.533Z,624.00
2018-04-29T04:33:51.529Z,612.00
2018-04-29T04:34:51.523Z,608.00
2018-04-29T04:35:51.516Z,620.00
2018-04-29T04:36:51.510Z,664.00
2018-04-29T04:37:51.505Z,728.00
2018-04-29T04:38:51.503Z,792.00
2018-04-29T04:39:51.497Z,856.00
2018-04-29T04:40:51.486Z,908.00
2018-04-29T04:41:51.481Z,1004.00
2018-04-29T04:42:51.480Z,1128.00
2018-04-29T04:43:51.474Z,1284.00
2018-04-29T04:44:51.462Z,1556.00
2018-04-29T04:45:51.455Z,1904.00
2018-04-29T04:46:51.451Z,2712.00
2018-04-29T04:47:51.445Z,3280.00
2018-04-29T04:48:51.439Z,3948.00
2018-04-29T04:49:51.434Z,4364.00
2018-04-29T04:50:51.433Z,5004.00
2018-04-29T04:51:51.427Z,5124.00
2018-04-29T04:52:51.416Z,5304.00
2018-04-29T04:53:51.412Z,5876.00
2018-04-29T04:54:51.406Z,6264.00
2018-04-29T04:55:51.404Z,6420.00
2018-04-29T04:56:51.396Z,6544.00
2018-04-29T04:57:51.390Z,4712.00
2018-04-29T04:58:51.385Z,5176.00
2018-04-29T04:59:51.383Z,5696.00
2018-04-29T05:00:51.378Z,7588.00
2018-04-29T05:01:51.372Z,7784.00
2018-04-29T05:02:51.372Z,7076.00
2018-04-29T05:03:51.368Z,6752.00
2018-04-29T05:04:51.360Z,6592.00
2018-04-29T05:05:51.356Z,5644.00
2018-04-29T05:06:51.352Z,6980.00
2018-04-29T05:07:51.349Z,7272.00
2018-04-29T05:08:51.349Z,5864.00
2018-04-29T05:09:51.346Z,5076.00
2018-04-29T05:10:51.339Z,5932.00
2018-04-29T05:11:51.337Z,4240.00
2018-04-29T05:12:51.333Z,3816.00
2018-04-29T05:13:51.331Z,2512.00
2018-04-29T05:14:51.329Z,2376.00
2018-04-29T05:15:51.327Z,2384.00
2018-04-29T05:16:51.324Z,2480.00
2018-04-29T05:17:51.322Z,2468.00
2018-04-29T05:18:51.318Z,2380.00
2018-04-29T05:19:51.316Z,2292.00
2018-04-29T05:20:51.317Z,2236.00
2018-04-29T05:21:51.315Z,2168.00
2018-04-29T05:22:51.313Z,2104.00
2018-04-29T05:23:51.310Z,2052.00
2018-04-29T05:24:51.302Z,1956.00
2018-04-29T05:25:51.301Z,1872.00
2018-04-29T05:26:51.298Z,1844.00
2018-04-29T05:27:51.295Z,1820.00
2018-04-29T05:28:51.291Z,1748.00
2018-04-29T05:29:51.292Z,1672.00
2018-04-29T05:30:51.286Z,1664.00
2018-04-29T05:31:51.283Z,1716.00
2018-04-29T05:32:51.283Z,1832.00
2018-04-29T05:33:51.277Z,1928.00
2018-04-29T05:34:51.278Z,1960.00
2018-04-29T05:35:51.275Z,1932.00
2018-04-29T05:36:51.267Z,1872.00
2018-04-29T05:37:51.263Z,1828.00
2018-04-29T05:38:51.260Z,1816.00
2018-04-29T05:39:51.257Z,1864.00
2018-04-29T05:40:51.257Z,1992.00
2018-04-29T05:41:51.256Z,2140.00
2018-04-29T05:42:51.246Z,2336.00
2018-04-29T05:43:51.243Z,2572.00
2018-04-29T05:44:51.238Z,2816.00
2018-04-29T05:45:51.235Z,2940.00
2018-04-29T05:46:51.233Z,2952.00
2018-04-29T05:47:51.229Z,3028.00
2018-04-29T05:48:51.223Z,3264.00
2018-04-29T05:49:51.242Z,3456.00
2018-04-29T05:50:51.218Z,3712.00
2018-04-29T05:51:51.214Z,4060.00
2018-04-29T05:52:51.213Z,4268.00
2018-04-29T05:53:51.210Z,4300.00
2018-04-29T05:54:51.203Z,4044.00
2018-04-29T05:55:51.200Z,3904.00
2018-04-29T05:56:51.195Z,4204.00
2018-04-29T05:57:51.191Z,4664.00
2018-04-29T05:58:51.188Z,4672.00
2018-04-29T05:59:51.184Z,5004.00
2018-04-29T06:00:51.183Z,6012.00
2018-04-29T06:01:51.180Z,6724.00
2018-04-29T06:02:51.235Z,7192.00
2018-04-29T06:03:51.174Z,10068.00
2018-04-29T06:04:51.170Z,9628.00
2018-04-29T06:05:51.166Z,8708.00
2018-04-29T06:06:51.159Z,9784.00
2018-04-29T06:07:51.156Z,9884.00
2018-04-29T06:08:51.151Z,12776.00
2018-04-29T06:09:51.148Z,21312.00
2018-04-29T06:10:51.147Z,13224.00
2018-04-29T06:11:51.142Z,12372.00
2018-04-29T06:12:51.138Z,9068.00
2018-04-29T06:13:51.136Z,7456.00
2018-04-29T06:14:51.138Z,7268.00
2018-04-29T06:15:51.135Z,5644.00
2018-04-29T06:16:51.127Z,4184.00
2018-04-29T06:17:51.134Z,3284.00
2018-04-29T06:18:51.127Z,2708.00
2018-04-29T06:19:51.125Z,2344.00
2018-04-29T06:20:51.118Z,2092.00
2018-04-29T06:21:51.120Z,1936.00
2018-04-29T06:22:51.114Z,1884.00
2018-04-29T06:23:51.111Z,1936.00
2018-04-29T06:24:51.108Z,2112.00
2018-04-29T06:25:51.108Z,2324.00
2018-04-29T06:26:51.107Z,2480.00
2018-04-29T06:27:51.102Z,2636.00
2018-04-29T06:28:51.098Z,2804.00
2018-04-29T06:29:51.096Z,3036.00
2018-04-29T06:30:51.095Z,3508.00
2018-04-29T06:31:51.166Z,4368.00
2018-04-29T06:32:51.093Z,5580.00
2018-04-29T06:33:51.090Z,6964.00
2018-04-29T06:34:51.083Z,7880.00
2018-04-29T06:35:51.080Z,8920.00
2018-04-29T06:36:51.082Z,9244.00
2018-04-29T06:37:51.080Z,9836.00
2018-04-29T06:38:51.139Z,9012.00
2018-04-29T06:39:51.070Z,6384.00
2018-04-29T06:40:51.066Z,4596.00
2018-04-29T06:41:51.064Z,3784.00
2018-04-29T06:42:51.062Z,3544.00
2018-04-29T06:43:51.059Z,3304.00
2018-04-29T06:44:51.061Z,3032.00
2018-04-29T06:45:51.055Z,2768.00
2018-04-29T06:46:51.079Z,2644.00
2018-04-29T06:47:51.054Z,2640.00
2018-04-29T06:48:51.046Z,2728.00
2018-04-29T06:49:51.045Z,2868.00
2018-04-29T06:50:51.045Z,2948.00
2018-04-29T06:51:51.043Z,2900.00
2018-04-29T06:52:51.035Z,2724.00
2018-04-29T06:53:51.037Z,2492.00
2018-04-29T06:54:51.030Z,2260.00
2018-04-29T06:55:51.031Z,2076.00
2018-04-29T06:56:51.026Z,1928.00
2018-04-29T06:57:51.023Z,1736.00
2018-04-29T06:58:51.025Z,1552.00
2018-04-29T06:59:51.023Z,1496.00
2018-04-29T07:00:51.086Z,1484.00
2018-04-29T07:01:51.012Z,1508.00
2018-04-29T07:02:51.011Z,1512.00
2018-04-29T07:03:51.007Z,1548.00
2018-04-29T07:04:51.007Z,1532.00
2018-04-29T07:05:51.001Z,1548.00
2018-04-29T07:06:50.998Z,1656.00
2018-04-29T07:07:51.002Z,1772.00
2018-04-29T07:08:50.993Z,1840.00
2018-04-29T07:09:50.995Z,1956.00
2018-04-29T07:10:50.991Z,2116.00
2018-04-29T07:11:50.989Z,2152.00
2018-04-29T07:12:50.981Z,2168.00
2018-04-29T07:13:50.978Z,2248.00
2018-04-29T07:14:50.975Z,2360.00
2018-04-29T07:15:50.973Z,2444.00
2018-04-29T07:16:50.973Z,2552.00
2018-04-29T07:17:50.971Z,2676.00
2018-04-29T07:18:50.965Z,2852.00
2018-04-29T07:19:51.013Z,3052.00
2018-04-29T07:20:50.957Z,3132.00
2018-04-29T07:21:50.954Z,3108.00
2018-04-29T07:22:50.951Z,3444.00
2018-04-29T07:23:50.948Z,3304.00
2018-04-29T07:24:50.945Z,2564.00
2018-04-29T07:25:50.941Z,2556.00
2018-04-29T07:26:50.940Z,2992.00
2018-04-29T07:27:50.934Z,3256.00
2018-04-29T07:28:50.935Z,3788.00
2018-04-29T07:29:50.932Z,4220.00
2018-04-29T07:30:50.929Z,4272.00
2018-04-29T07:31:50.927Z,3884.00
2018-04-29T07:32:50.918Z,4084.00
2018-04-29T07:33:50.915Z,4976.00
2018-04-29T07:34:50.916Z,6364.00
2018-04-29T07:35:50.909Z,8112.00
2018-04-29T07:36:50.905Z,8776.00
2018-04-29T07:37:50.979Z,7776.00
2018-04-29T07:38:50.900Z,6800.00
2018-04-29T07:39:50.973Z,6712.00
2018-04-29T07:40:50.893Z,6944.00
2018-04-29T07:41:50.889Z,7540.00
2018-04-29T07:42:50.891Z,8744.00
2018-04-29T07:43:50.889Z,10228.00
2018-04-29T07:44:50.880Z,11876.00
2018-04-29T07:45:50.876Z,12440.00
2018-04-29T07:46:50.874Z,12424.00
2018-04-29T07:47:50.873Z,13172.00
2018-04-29T07:48:50.872Z,14256.00
2018-04-29T07:49:50.870Z,16896.00
2018-04-29T07:50:50.863Z,19776.00
2018-04-29T07:51:50.863Z,22368.00
2018-04-29T07:52:50.860Z,26144.00
2018-04-29T07:53:50.856Z,17088.00
2018-04-29T07:54:50.903Z,14504.00
2018-04-29T07:55:50.853Z,12016.00
2018-04-29T07:56:50.852Z,8824.00
2018-04-29T07:57:50.850Z,7516.00
2018-04-29T07:58:50.849Z,8048.00
2018-04-29T07:59:50.847Z,8132.00
2018-04-29T08:00:50.876Z,6948.00
2018-04-29T08:01:50.850Z,6080.00
2018-04-29T08:02:50.845Z,5604.00
2018-04-29T08:03:50.844Z,5788.00
2018-04-29T08:04:50.842Z,6800.00
2018-04-29T08:05:50.843Z,6340.00
2018-04-29T08:06:50.878Z,5076.00
2018-04-29T08:07:50.839Z,4672.00
2018-04-29T08:08:50.842Z,3756.00
2018-04-29T08:09:50.841Z,3244.00
2018-04-29T08:10:50.835Z,3156.00
2018-04-29T08:11:50.836Z,3596.00
2018-04-29T08:12:50.837Z,4236.00
2018-04-29T08:13:50.837Z,5120.00
2018-04-29T08:14:50.831Z,5176.00
2018-04-29T08:15:50.830Z,4340.00
2018-04-29T08:16:50.828Z,4516.00
2018-04-29T08:17:50.826Z,7608.00
2018-04-29T08:18:50.826Z,7832.00
2018-04-29T08:19:50.823Z,8164.00
2018-04-29T08:20:50.820Z,10356.00
2018-04-29T08:21:50.820Z,7360.00
2018-04-29T08:22:50.826Z,7508.00
2018-04-29T08:23:50.821Z,7752.00
2018-04-29T08:24:50.815Z,8268.00
2018-04-29T08:25:50.813Z,7928.00
2018-04-29T08:26:50.817Z,5728.00
2018-04-29T08:27:50.815Z,5040.00
2018-04-29T08:28:50.809Z,6064.00
2018-04-29T08:29:50.808Z,9132.00
2018-04-29T08:30:50.807Z,7944.00
2018-04-29T08:31:50.805Z,6196.00
2018-04-29T08:32:50.804Z,5660.00
2018-04-29T08:33:50.803Z,5416.00
2018-04-29T08:34:50.803Z,4308.00
2018-04-29T08:35:50.802Z,3412.00
2018-04-29T08:36:50.799Z,3740.00
2018-04-29T08:37:50.800Z,4332.00
2018-04-29T08:38:50.797Z,4720.00
2018-04-29T08:39:50.797Z,4832.00
2018-04-29T08:40:50.799Z,3408.00
2018-04-29T08:41:50.810Z,2164.00
2018-04-29T08:42:50.793Z,1184.00
2018-04-29T08:43:50.793Z,848.00
2018-04-29T08:44:50.796Z,984.00
2018-04-29T08:45:50.795Z,1348.00
2018-04-29T08:46:50.789Z,1384.00
2018-04-29T08:47:50.788Z,1152.00
2018-04-29T08:48:50.787Z,1564.00
2018-04-29T08:49:50.787Z,2424.00
2018-04-29T08:50:50.784Z,2716.00
2018-04-29T08:51:50.783Z,2592.00
2018-04-29T08:52:50.781Z,2468.00
2018-04-29T08:53:50.781Z,2472.00
2018-04-29T08:54:50.836Z,2560.00
2018-04-29T08:55:50.781Z,3200.00
2018-04-29T08:56:50.774Z,3912.00
2018-04-29T08:57:50.776Z,4732.00
2018-04-29T08:58:50.779Z,5984.00
2018-04-29T08:59:50.773Z,7620.00
2018-04-29T09:00:50.766Z,9496.00
2018-04-29T09:01:50.765Z,10652.00
2018-04-29T09:02:50.763Z,11212.00
2018-04-29T09:03:50.858Z,11988.00
2018-04-29T09:04:50.762Z,12036.00
2018-04-29T09:05:50.764Z,11440.00
2018-04-29T09:06:50.755Z,13660.00
2018-04-29T09:07:50.753Z,12736.00
2018-04-29T09:08:50.750Z,11448.00
2018-04-29T09:09:50.748Z,9140.00
2018-04-29T09:10:50.746Z,6300.00
2018-04-29T09:11:50.746Z,5788.00
2018-04-29T09:12:50.747Z,11180.00
2018-04-29T09:13:50.746Z,19648.00
2018-04-29T09:14:50.740Z,20352.00
2018-04-29T09:15:50.740Z,17408.00
2018-04-29T09:16:50.815Z,15752.00
2018-04-29T09:17:50.742Z,15968.00
2018-04-29T09:18:50.736Z,18720.00
2018-04-29T09:19:50.736Z,17088.00
2018-04-29T09:20:50.735Z,15104.00
2018-04-29T09:21:50.735Z,15708.00
2018-04-29T09:22:50.736Z,16576.00
2018-04-29T09:23:50.736Z,18432.00
2018-04-29T09:24:50.737Z,18720.00
2018-04-29T09:25:50.737Z,22240.00
2018-04-29T09:26:50.737Z,32384.00
2018-04-29T09:27:50.739Z,29376.00
2018-04-29T09:28:50.733Z,32608.00
2018-04-29T09:29:50.735Z,45088.00
2018-04-29T09:30:50.740Z,57824.00
2018-04-29T09:31:50.741Z,27680.00
2018-04-29T09:32:50.738Z,61888.00
2018-04-29T09:33:50.740Z,63392.00
2018-04-29T09:34:50.743Z,61472.00
2018-04-29T09:35:50.747Z,59968.00
2018-04-29T09:36:50.754Z,53376.00
2018-04-29T09:37:50.755Z,57760.00
2018-04-29T09:38:50.760Z,49600.00
2018-04-29T09:39:50.765Z,63776.00
2018-04-29T09:40:50.771Z,52832.00
2018-04-29T09:41:50.777Z,28512.00
2018-04-29T09:42:50.784Z,58784.00
2018-04-29T09:43:50.791Z,54656.00
2018-04-29T09:44:50.802Z,46496.00
2018-04-29T09:45:50.811Z,29536.00
2018-04-29T09:46:50.814Z,27424.00
2018-04-29T09:47:50.821Z,25056.00
2018-04-29T09:48:50.834Z,25472.00
2018-04-29T09:49:50.841Z,25376.00
2018-04-29T09:50:50.846Z,21920.00
2018-04-29T09:51:50.855Z,24512.00
2018-04-29T09:52:50.862Z,23840.00
2018-04-29T09:53:50.871Z,42880.00
2018-04-29T09:54:50.879Z,58304.00
2018-04-29T09:55:50.886Z,25184.00
2018-04-29T09:56:50.893Z,18880.00
2018-04-29T09:57:50.902Z,16960.00
2018-04-29T09:58:50.913Z,15308.00
2018-04-29T09:59:50.920Z,15840.00
2018-04-29T10:00:50.951Z,15248.00
2018-04-29T10:01:50.931Z,14296.00
2018-04-29T10:02:50.941Z,14140.00
2018-04-29T10:03:50.948Z,14556.00
2018-04-29T10:04:50.950Z,13604.00
2018-04-29T10:05:50.956Z,14092.00
2018-04-29T10:06:50.962Z,14604.00
2018-04-29T10:07:50.969Z,14540.00
2018-04-29T10:08:50.973Z,14376.00
2018-04-29T10:09:50.979Z,18304.00
2018-04-29T10:10:50.991Z,36544.00
2018-04-29T10:11:50.996Z,54272.00
2018-04-29T10:12:50.999Z,50528.00
2018-04-29T10:13:51.001Z,53920.00
2018-04-29T10:14:51.008Z,44544.00
2018-04-29T10:15:51.013Z,29824.00
2018-04-29T10:16:51.017Z,63968.00
2018-04-29T10:17:51.024Z,56640.00
2018-04-29T10:18:51.084Z,58272.00
2018-04-29T10:19:51.035Z,56928.00
2018-04-29T10:20:51.041Z,46464.00
2018-04-29T10:21:51.048Z,75264.00
2018-04-29T10:22:51.060Z,62016.00
2018-04-29T10:23:51.066Z,34112.00
2018-04-29T10:24:51.068Z,33888.00
2018-04-29T10:25:51.076Z,37728.00
2018-04-29T10:26:51.085Z,48608.00
2018-04-29T10:27:51.095Z,43872.00
2018-04-29T10:28:51.104Z,33824.00
2018-04-29T10:29:51.113Z,38752.00
2018-04-29T10:30:51.117Z,36928.00
2018-04-29T10:31:51.127Z,23296.00
2018-04-29T10:32:51.237Z,18656.00
2018-04-29T10:33:51.143Z,25632.00
2018-04-29T10:34:51.152Z,22784.00
2018-04-29T10:35:51.160Z,22432.00
2018-04-29T10:36:51.168Z,21760.00
2018-04-29T10:37:51.178Z,21888.00
2018-04-29T10:38:51.184Z,19936.00
2018-04-29T10:39:51.193Z,18400.00
2018-04-29T10:40:51.203Z,17728.00
2018-04-29T10:41:51.212Z,18208.00
2018-04-29T10:42:51.220Z,22016.00
2018-04-29T10:43:51.226Z,21216.00
2018-04-29T10:44:51.227Z,18688.00
2018-04-29T10:45:51.235Z,18144.00
2018-04-29T10:46:51.246Z,19840.00
2018-04-29T10:47:51.248Z,19296.00
2018-04-29T10:48:51.253Z,16800.00
2018-04-29T10:49:51.260Z,16032.00
2018-04-29T10:50:51.266Z,15680.00
2018-04-29T10:51:51.280Z,16672.00
2018-04-29T10:52:51.278Z,17344.00
2018-04-29T10:53:51.283Z,17792.00
2018-04-29T10:54:51.293Z,18848.00
2018-04-29T10:55:51.298Z,18240.00
2018-04-29T10:56:51.298Z,21568.00
2018-04-29T10:57:51.304Z,28128.00
2018-04-29T10:58:51.357Z,26496.00
2018-04-29T10:59:51.316Z,40448.00
2018-04-29T11:00:51.326Z,21920.00
2018-04-29T11:01:51.331Z,16544.00
2018-04-29T11:02:51.335Z,13532.00
2018-04-29T11:03:51.337Z,12172.00
2018-04-29T11:04:51.343Z,14264.00
2018-04-29T11:05:51.352Z,14908.00
2018-04-29T11:06:51.352Z,13820.00
2018-04-29T11:07:51.357Z,14188.00
2018-04-29T11:08:51.361Z,31680.00
2018-04-29T11:09:51.371Z,30208.00
2018-04-29T11:10:51.371Z,23520.00
2018-04-29T11:11:51.473Z,17920.00
2018-04-29T11:12:51.385Z,15188.00
2018-04-29T11:13:51.390Z,14712.00
2018-04-29T11:14:51.392Z,15084.00
2018-04-29T11:15:51.397Z,17888.00
2018-04-29T11:16:51.399Z,27360.00
2018-04-29T11:17:51.408Z,16800.00
2018-04-29T11:18:51.408Z,15520.00
2018-04-29T11:19:51.413Z,13608.00
2018-04-29T11:20:51.422Z,12476.00
2018-04-29T11:21:51.426Z,11864.00
2018-04-29T11:22:51.426Z,12240.00
2018-04-29T11:23:51.431Z,15240.00
2018-04-29T11:24:51.438Z,16128.00
2018-04-29T11:25:51.444Z,14048.00
2018-04-29T11:26:51.443Z,13380.00
2018-04-29T11:27:51.449Z,13960.00
2018-04-29T11:28:51.452Z,14328.00
2018-04-29T11:29:51.456Z,13404.00
2018-04-29T11:30:51.460Z,12992.00
2018-04-29T11:31:51.465Z,13468.00
2018-04-29T11:32:51.468Z,12872.00
2018-04-29T11:33:51.527Z,11832.00
2018-04-29T11:34:51.480Z,11404.00
2018-04-29T11:35:51.484Z,11220.00
2018-04-29T11:36:51.485Z,10976.00
2018-04-29T11:37:51.487Z,11044.00
2018-04-29T11:38:51.495Z,10996.00
2018-04-29T11:39:51.507Z,10528.00
2018-04-29T11:40:51.499Z,9440.00
2018-04-29T11:41:51.504Z,8416.00
2018-04-29T11:42:51.506Z,7868.00
2018-04-29T11:43:51.511Z,8508.00
2018-04-29T11:44:51.517Z,9628.00
2018-04-29T11:45:51.640Z,11672.00
2018-04-29T11:46:51.521Z,14364.00
2018-04-29T11:47:51.523Z,15412.00
2018-04-29T11:48:51.526Z,15248.00
2018-04-29T11:49:51.529Z,15016.00
2018-04-29T11:50:51.533Z,14556.00
2018-04-29T11:51:51.535Z,13612.00
2018-04-29T11:52:51.543Z,13772.00
2018-04-29T11:53:51.549Z,14168.00
2018-04-29T11:54:51.544Z,15968.00
2018-04-29T11:55:51.547Z,17920.00
2018-04-29T11:56:51.553Z,17664.00
2018-04-29T11:57:51.557Z,15768.00
2018-04-29T11:58:51.557Z,13440.00
2018-04-29T11:59:51.561Z,12176.00
2018-04-29T12:00:51.565Z,13912.00
2018-04-29T12:01:51.642Z,13668.00
2018-04-29T12:02:51.568Z,14572.00
2018-04-29T12:03:51.572Z,13904.00
2018-04-29T12:04:51.574Z,11304.00
2018-04-29T12:05:51.578Z,11324.00
2018-04-29T12:06:51.586Z,13752.00
2018-04-29T12:07:51.590Z,14780.00
2018-04-29T12:08:51.588Z,13992.00
2018-04-29T12:09:51.699Z,12640.00
2018-04-29T12:10:51.599Z,13368.00
2018-04-29T12:11:51.603Z,14580.00
2018-04-29T12:12:51.602Z,14720.00
2018-04-29T12:13:51.610Z,13936.00
2018-04-29T12:14:51.611Z,13088.00
2018-04-29T12:15:51.614Z,12196.00
2018-04-29T12:16:51.617Z,11000.00
2018-04-29T12:17:51.623Z,9964.00
2018-04-29T12:18:51.630Z,10432.00
2018-04-29T12:19:51.634Z,13164.00
2018-04-29T12:20:51.632Z,13716.00
2018-04-29T12:21:51.636Z,12888.00
2018-04-29T12:22:51.641Z,12784.00